sensor_id;sensor_type;location;lat;lon;timestamp;P1;durP1;ratioP1;P2;durP2;ratioP2
78871;SDS011;68247;43.514;1.502;2023-07-31T00:00:56;8.13;;;4.60;;
78871;SDS011;68247;43.514;1.502;2023-07-31T00:03:21;8.97;;;4.50;;
78871;SDS011;68247;43.514;1.502;2023-07-31T00:05:46;8.47;;;3.97;;
78871;SDS011;68247;43.514;1.502;2023-07-31T00:08:12;8.80;;;4.07;;
78871;SDS011;68247;43.514;1.502;2023-07-31T00:10:37;8.47;;;3.93;;
78871;SDS011;68247;43.514;1.502;2023-07-31T00:13:03;9.83;;;4.00;;
78871;SDS011;68247;43.514;1.502;2023-07-31T00:15:28;8.18;;;4.00;;
78871;SDS011;68247;43.514;1.502;2023-07-31T00:17:54;10.87;;;4.17;;
78871;SDS011;68247;43.514;1.502;2023-07-31T00:20:19;9.67;;;3.57;;
78871;SDS011;68247;43.514;1.502;2023-07-31T00:22:45;9.23;;;4.18;;
78871;SDS011;68247;43.514;1.502;2023-07-31T00:25:10;10.57;;;4.57;;
78871;SDS011;68247;43.514;1.502;2023-07-31T00:27:36;8.00;;;4.00;;
78871;SDS011;68247;43.514;1.502;2023-07-31T00:30:01;9.20;;;4.13;;
78871;SDS011;68247;43.514;1.502;2023-07-31T00:32:27;10.45;;;3.88;;
78871;SDS011;68247;43.514;1.502;2023-07-31T00:34:52;9.57;;;4.10;;
78871;SDS011;68247;43.514;1.502;2023-07-31T00:37:17;8.53;;;4.33;;
78871;SDS011;68247;43.514;1.502;2023-07-31T00:39:43;10.83;;;4.20;;
78871;SDS011;68247;43.514;1.502;2023-07-31T00:42:08;9.18;;;3.92;;
78871;SDS011;68247;43.514;1.502;2023-07-31T00:44:34;12.83;;;4.47;;
78871;SDS011;68247;43.514;1.502;2023-07-31T00:46:59;7.73;;;3.80;;
78871;SDS011;68247;43.514;1.502;2023-07-31T00:49:25;10.73;;;4.10;;
78871;SDS011;68247;43.514;1.502;2023-07-31T00:51:51;9.38;;;4.07;;
78871;SDS011;68247;43.514;1.502;2023-07-31T00:54:17;8.40;;;4.13;;
78871;SDS011;68247;43.514;1.502;2023-07-31T00:56:44;8.57;;;4.30;;
78871;SDS011;68247;43.514;1.502;2023-07-31T00:59:10;8.90;;;4.35;;
78871;SDS011;68247;43.514;1.502;2023-07-31T01:01:36;11.97;;;4.63;;
78871;SDS011;68247;43.514;1.502;2023-07-31T01:04:01;9.02;;;4.18;;
78871;SDS011;68247;43.514;1.502;2023-07-31T01:06:31;9.07;;;4.37;;
78871;SDS011;68247;43.514;1.502;2023-07-31T01:11:56;9.50;;;4.38;;
78871;SDS011;68247;43.514;1.502;2023-07-31T01:14:22;9.38;;;3.88;;
78871;SDS011;68247;43.514;1.502;2023-07-31T01:16:47;11.40;;;4.83;;
78871;SDS011;68247;43.514;1.502;2023-07-31T01:19:14;8.90;;;4.30;;
78871;SDS011;68247;43.514;1.502;2023-07-31T01:26:58;12.97;;;4.00;;
78871;SDS011;68247;43.514;1.502;2023-07-31T01:29:48;8.75;;;4.78;;
78871;SDS011;68247;43.514;1.502;2023-07-31T01:32:16;9.35;;;4.53;;
78871;SDS011;68247;43.514;1.502;2023-07-31T01:34:43;11.93;;;4.90;;
78871;SDS011;68247;43.514;1.502;2023-07-31T01:37:09;10.07;;;4.28;;
78871;SDS011;68247;43.514;1.502;2023-07-31T01:39:34;8.73;;;4.23;;
78871;SDS011;68247;43.514;1.502;2023-07-31T01:42:00;8.70;;;4.60;;
78871;SDS011;68247;43.514;1.502;2023-07-31T01:44:25;11.45;;;4.85;;
78871;SDS011;68247;43.514;1.502;2023-07-31T01:46:51;11.57;;;4.73;;
78871;SDS011;68247;43.514;1.502;2023-07-31T01:49:16;8.63;;;4.73;;
78871;SDS011;68247;43.514;1.502;2023-07-31T01:51:42;10.37;;;4.50;;
78871;SDS011;68247;43.514;1.502;2023-07-31T01:54:07;12.45;;;4.45;;
78871;SDS011;68247;43.514;1.502;2023-07-31T01:56:33;6.70;;;3.83;;
78871;SDS011;68247;43.514;1.502;2023-07-31T01:58:58;10.93;;;4.60;;
78871;SDS011;68247;43.514;1.502;2023-07-31T02:01:24;8.85;;;4.93;;
78871;SDS011;68247;43.514;1.502;2023-07-31T02:03:49;9.13;;;5.10;;
78871;SDS011;68247;43.514;1.502;2023-07-31T02:06:15;8.20;;;4.83;;
78871;SDS011;68247;43.514;1.502;2023-07-31T02:08:40;8.97;;;4.57;;
78871;SDS011;68247;43.514;1.502;2023-07-31T02:11:06;10.70;;;4.68;;
78871;SDS011;68247;43.514;1.502;2023-07-31T02:13:31;10.33;;;4.40;;
78871;SDS011;68247;43.514;1.502;2023-07-31T02:15:57;10.30;;;4.63;;
78871;SDS011;68247;43.514;1.502;2023-07-31T02:18:22;11.20;;;4.63;;
78871;SDS011;68247;43.514;1.502;2023-07-31T02:20:49;8.43;;;4.37;;
78871;SDS011;68247;43.514;1.502;2023-07-31T02:23:15;10.55;;;4.72;;
78871;SDS011;68247;43.514;1.502;2023-07-31T02:25:40;11.47;;;4.63;;
78871;SDS011;68247;43.514;1.502;2023-07-31T02:28:06;8.87;;;4.37;;
78871;SDS011;68247;43.514;1.502;2023-07-31T02:30:31;9.47;;;4.30;;
78871;SDS011;68247;43.514;1.502;2023-07-31T02:32:56;11.47;;;4.53;;
78871;SDS011;68247;43.514;1.502;2023-07-31T02:35:22;8.43;;;4.57;;
78871;SDS011;68247;43.514;1.502;2023-07-31T02:37:47;10.30;;;4.50;;
78871;SDS011;68247;43.514;1.502;2023-07-31T02:40:13;8.40;;;3.85;;
78871;SDS011;68247;43.514;1.502;2023-07-31T02:42:38;10.30;;;4.60;;
78871;SDS011;68247;43.514;1.502;2023-07-31T02:45:04;10.10;;;4.20;;
78871;SDS011;68247;43.514;1.502;2023-07-31T02:47:30;11.05;;;4.28;;
78871;SDS011;68247;43.514;1.502;2023-07-31T02:49:56;8.77;;;4.60;;
78871;SDS011;68247;43.514;1.502;2023-07-31T02:52:21;10.32;;;5.45;;
78871;SDS011;68247;43.514;1.502;2023-07-31T02:54:46;12.03;;;5.80;;
78871;SDS011;68247;43.514;1.502;2023-07-31T02:57:12;15.33;;;6.03;;
78871;SDS011;68247;43.514;1.502;2023-07-31T02:59:37;13.20;;;5.70;;
78871;SDS011;68247;43.514;1.502;2023-07-31T03:02:03;15.15;;;7.43;;
78871;SDS011;68247;43.514;1.502;2023-07-31T03:04:29;12.07;;;7.30;;
78871;SDS011;68247;43.514;1.502;2023-07-31T03:06:54;14.17;;;8.20;;
78871;SDS011;68247;43.514;1.502;2023-07-31T03:09:19;19.63;;;9.43;;
78871;SDS011;68247;43.514;1.502;2023-07-31T03:11:45;18.23;;;9.83;;
78871;SDS011;68247;43.514;1.502;2023-07-31T03:14:10;16.80;;;9.93;;
78871;SDS011;68247;43.514;1.502;2023-07-31T03:16:36;17.83;;;9.97;;
78871;SDS011;68247;43.514;1.502;2023-07-31T03:19:01;17.92;;;9.85;;
78871;SDS011;68247;43.514;1.502;2023-07-31T03:21:26;20.93;;;9.77;;
78871;SDS011;68247;43.514;1.502;2023-07-31T03:23:52;19.43;;;9.97;;
78871;SDS011;68247;43.514;1.502;2023-07-31T03:26:18;16.63;;;8.60;;
78871;SDS011;68247;43.514;1.502;2023-07-31T03:28:43;15.02;;;8.40;;
78871;SDS011;68247;43.514;1.502;2023-07-31T03:31:08;12.43;;;7.47;;
78871;SDS011;68247;43.514;1.502;2023-07-31T03:33:34;13.53;;;7.07;;
78871;SDS011;68247;43.514;1.502;2023-07-31T03:35:59;14.47;;;7.50;;
78871;SDS011;68247;43.514;1.502;2023-07-31T03:38:25;11.68;;;6.28;;
78871;SDS011;68247;43.514;1.502;2023-07-31T03:40:50;9.57;;;5.17;;
78871;SDS011;68247;43.514;1.502;2023-07-31T03:43:16;9.87;;;5.17;;
78871;SDS011;68247;43.514;1.502;2023-07-31T03:45:41;11.13;;;5.35;;
78871;SDS011;68247;43.514;1.502;2023-07-31T03:48:07;10.70;;;4.83;;
78871;SDS011;68247;43.514;1.502;2023-07-31T03:50:33;10.80;;;4.87;;
78871;SDS011;68247;43.514;1.502;2023-07-31T03:52:58;10.87;;;4.80;;
78871;SDS011;68247;43.514;1.502;2023-07-31T03:55:23;10.60;;;4.60;;
78871;SDS011;68247;43.514;1.502;2023-07-31T03:57:49;13.93;;;4.43;;
78871;SDS011;68247;43.514;1.502;2023-07-31T04:00:14;9.98;;;5.25;;
78871;SDS011;68247;43.514;1.502;2023-07-31T04:02:40;9.73;;;4.60;;
78871;SDS011;68247;43.514;1.502;2023-07-31T04:05:05;10.83;;;4.70;;
78871;SDS011;68247;43.514;1.502;2023-07-31T04:07:31;8.65;;;4.30;;
78871;SDS011;68247;43.514;1.502;2023-07-31T04:09:57;9.87;;;4.17;;
78871;SDS011;68247;43.514;1.502;2023-07-31T04:12:22;8.77;;;4.10;;
78871;SDS011;68247;43.514;1.502;2023-07-31T04:14:48;8.80;;;4.32;;
78871;SDS011;68247;43.514;1.502;2023-07-31T04:17:13;8.37;;;4.03;;
78871;SDS011;68247;43.514;1.502;2023-07-31T04:19:38;8.77;;;4.37;;
78871;SDS011;68247;43.514;1.502;2023-07-31T04:22:04;8.47;;;4.57;;
78871;SDS011;68247;43.514;1.502;2023-07-31T04:24:29;9.85;;;4.13;;
78871;SDS011;68247;43.514;1.502;2023-07-31T04:26:55;10.60;;;4.63;;
78871;SDS011;68247;43.514;1.502;2023-07-31T04:29:20;10.87;;;4.40;;
78871;SDS011;68247;43.514;1.502;2023-07-31T04:31:46;10.20;;;4.30;;
78871;SDS011;68247;43.514;1.502;2023-07-31T04:34:12;8.37;;;4.17;;
78871;SDS011;68247;43.514;1.502;2023-07-31T04:36:37;10.48;;;4.40;;
78871;SDS011;68247;43.514;1.502;2023-07-31T04:39:03;8.77;;;4.23;;
78871;SDS011;68247;43.514;1.502;2023-07-31T04:41:29;9.87;;;3.90;;
78871;SDS011;68247;43.514;1.502;2023-07-31T04:43:54;10.07;;;4.15;;
78871;SDS011;68247;43.514;1.502;2023-07-31T04:46:20;9.53;;;4.00;;
78871;SDS011;68247;43.514;1.502;2023-07-31T04:48:45;10.13;;;4.03;;
78871;SDS011;68247;43.514;1.502;2023-07-31T04:51:10;9.73;;;4.80;;
78871;SDS011;68247;43.514;1.502;2023-07-31T04:53:36;13.10;;;4.23;;
78871;SDS011;68247;43.514;1.502;2023-07-31T04:56:02;9.17;;;3.77;;
78871;SDS011;68247;43.514;1.502;2023-07-31T04:58:27;11.47;;;4.40;;
78871;SDS011;68247;43.514;1.502;2023-07-31T05:00:52;12.70;;;4.25;;
78871;SDS011;68247;43.514;1.502;2023-07-31T05:03:18;8.00;;;3.87;;
78871;SDS011;68247;43.514;1.502;2023-07-31T05:05:43;10.70;;;3.70;;
78871;SDS011;68247;43.514;1.502;2023-07-31T05:08:09;8.23;;;3.87;;
78871;SDS011;68247;43.514;1.502;2023-07-31T05:10:34;10.75;;;4.13;;
78871;SDS011;68247;43.514;1.502;2023-07-31T05:13:00;11.73;;;4.43;;
78871;SDS011;68247;43.514;1.502;2023-07-31T05:15:25;11.67;;;4.20;;
78871;SDS011;68247;43.514;1.502;2023-07-31T05:17:50;10.37;;;4.23;;
78871;SDS011;68247;43.514;1.502;2023-07-31T05:20:16;8.17;;;3.83;;
78871;SDS011;68247;43.514;1.502;2023-07-31T05:22:41;9.05;;;3.88;;
78871;SDS011;68247;43.514;1.502;2023-07-31T05:25:07;10.63;;;4.50;;
78871;SDS011;68247;43.514;1.502;2023-07-31T05:27:33;10.93;;;4.03;;
78871;SDS011;68247;43.514;1.502;2023-07-31T05:29:58;8.37;;;3.83;;
78871;SDS011;68247;43.514;1.502;2023-07-31T05:32:24;8.93;;;4.30;;
78871;SDS011;68247;43.514;1.502;2023-07-31T05:34:52;7.83;;;3.93;;
78871;SDS011;68247;43.514;1.502;2023-07-31T05:37:18;9.15;;;4.18;;
78871;SDS011;68247;43.514;1.502;2023-07-31T05:39:44;11.88;;;4.20;;
78871;SDS011;68247;43.514;1.502;2023-07-31T05:42:09;8.80;;;3.90;;
78871;SDS011;68247;43.514;1.502;2023-07-31T05:44:35;7.77;;;4.47;;
78871;SDS011;68247;43.514;1.502;2023-07-31T05:47:00;9.30;;;4.38;;
78871;SDS011;68247;43.514;1.502;2023-07-31T05:49:26;10.07;;;4.03;;
78871;SDS011;68247;43.514;1.502;2023-07-31T05:51:51;7.93;;;3.63;;
78871;SDS011;68247;43.514;1.502;2023-07-31T05:54:17;9.00;;;3.90;;
78871;SDS011;68247;43.514;1.502;2023-07-31T05:56:42;10.53;;;3.73;;
78871;SDS011;68247;43.514;1.502;2023-07-31T05:59:08;12.93;;;4.00;;
78871;SDS011;68247;43.514;1.502;2023-07-31T06:01:34;9.85;;;4.00;;
78871;SDS011;68247;43.514;1.502;2023-07-31T06:04:00;13.07;;;4.17;;
78871;SDS011;68247;43.514;1.502;2023-07-31T06:06:26;9.88;;;4.00;;
78871;SDS011;68247;43.514;1.502;2023-07-31T06:08:52;9.97;;;3.77;;
78871;SDS011;68247;43.514;1.502;2023-07-31T06:11:18;13.50;;;3.77;;
78871;SDS011;68247;43.514;1.502;2023-07-31T06:13:45;9.00;;;3.20;;
78871;SDS011;68247;43.514;1.502;2023-07-31T06:16:11;9.32;;;4.05;;
78871;SDS011;68247;43.514;1.502;2023-07-31T06:18:37;9.73;;;3.80;;
78871;SDS011;68247;43.514;1.502;2023-07-31T06:21:02;12.53;;;3.67;;
78871;SDS011;68247;43.514;1.502;2023-07-31T06:23:28;8.23;;;3.47;;
78871;SDS011;68247;43.514;1.502;2023-07-31T06:25:53;9.13;;;3.90;;
78871;SDS011;68247;43.514;1.502;2023-07-31T06:28:19;10.07;;;3.63;;
78871;SDS011;68247;43.514;1.502;2023-07-31T06:30:44;11.20;;;3.60;;
78871;SDS011;68247;43.514;1.502;2023-07-31T06:33:10;9.80;;;3.50;;
78871;SDS011;68247;43.514;1.502;2023-07-31T06:35:35;12.23;;;3.60;;
78871;SDS011;68247;43.514;1.502;2023-07-31T06:38:01;12.93;;;3.97;;
78871;SDS011;68247;43.514;1.502;2023-07-31T06:40:27;10.88;;;3.70;;
78871;SDS011;68247;43.514;1.502;2023-07-31T06:42:53;9.37;;;3.57;;
78871;SDS011;68247;43.514;1.502;2023-07-31T06:45:18;13.23;;;3.30;;
78871;SDS011;68247;43.514;1.502;2023-07-31T06:47:44;10.60;;;4.20;;
78871;SDS011;68247;43.514;1.502;2023-07-31T06:50:09;11.43;;;3.83;;
78871;SDS011;68247;43.514;1.502;2023-07-31T06:52:35;11.43;;;3.55;;
78871;SDS011;68247;43.514;1.502;2023-07-31T06:55:14;11.27;;;4.17;;
78871;SDS011;68247;43.514;1.502;2023-07-31T06:57:43;11.85;;;3.75;;
78871;SDS011;68247;43.514;1.502;2023-07-31T07:00:09;9.50;;;3.33;;
78871;SDS011;68247;43.514;1.502;2023-07-31T07:02:35;14.50;;;3.45;;
78871;SDS011;68247;43.514;1.502;2023-07-31T07:05:00;9.20;;;3.83;;
78871;SDS011;68247;43.514;1.502;2023-07-31T07:07:26;8.23;;;3.20;;
78871;SDS011;68247;43.514;1.502;2023-07-31T07:09:51;9.97;;;3.67;;
78871;SDS011;68247;43.514;1.502;2023-07-31T07:12:17;10.80;;;3.37;;
78871;SDS011;68247;43.514;1.502;2023-07-31T07:14:42;10.93;;;3.25;;
78871;SDS011;68247;43.514;1.502;2023-07-31T07:17:08;10.27;;;3.50;;
78871;SDS011;68247;43.514;1.502;2023-07-31T07:19:33;12.67;;;3.47;;
78871;SDS011;68247;43.514;1.502;2023-07-31T07:21:58;8.87;;;3.30;;
78871;SDS011;68247;43.514;1.502;2023-07-31T07:24:26;9.95;;;3.17;;
78871;SDS011;68247;43.514;1.502;2023-07-31T07:26:52;9.45;;;4.10;;
78871;SDS011;68247;43.514;1.502;2023-07-31T07:29:17;10.37;;;3.40;;
78871;SDS011;68247;43.514;1.502;2023-07-31T07:31:43;10.90;;;3.13;;
78871;SDS011;68247;43.514;1.502;2023-07-31T07:34:08;12.23;;;3.83;;
78871;SDS011;68247;43.514;1.502;2023-07-31T07:36:34;9.07;;;3.33;;
78871;SDS011;68247;43.514;1.502;2023-07-31T07:38:59;9.00;;;3.47;;
78871;SDS011;68247;43.514;1.502;2023-07-31T07:41:25;9.63;;;2.67;;
78871;SDS011;68247;43.514;1.502;2023-07-31T07:43:50;9.73;;;3.27;;
78871;SDS011;68247;43.514;1.502;2023-07-31T07:46:17;9.65;;;3.30;;
78871;SDS011;68247;43.514;1.502;2023-07-31T07:48:42;11.23;;;3.50;;
78871;SDS011;68247;43.514;1.502;2023-07-31T07:51:07;12.80;;;3.87;;
78871;SDS011;68247;43.514;1.502;2023-07-31T07:53:33;9.60;;;3.30;;
78871;SDS011;68247;43.514;1.502;2023-07-31T07:55:58;14.33;;;3.93;;
78871;SDS011;68247;43.514;1.502;2023-07-31T07:58:24;8.37;;;3.30;;
78871;SDS011;68247;43.514;1.502;2023-07-31T08:00:52;8.57;;;3.50;;
78871;SDS011;68247;43.514;1.502;2023-07-31T08:03:17;9.60;;;3.77;;
78871;SDS011;68247;43.514;1.502;2023-07-31T08:05:43;11.13;;;3.35;;
78871;SDS011;68247;43.514;1.502;2023-07-31T08:08:13;9.13;;;3.70;;
78871;SDS011;68247;43.514;1.502;2023-07-31T08:10:42;10.85;;;3.33;;
78871;SDS011;68247;43.514;1.502;2023-07-31T08:13:07;16.73;;;3.72;;
78871;SDS011;68247;43.514;1.502;2023-07-31T08:15:34;12.15;;;3.58;;
78871;SDS011;68247;43.514;1.502;2023-07-31T08:17:59;10.00;;;2.93;;
78871;SDS011;68247;43.514;1.502;2023-07-31T08:20:26;7.35;;;3.30;;
78871;SDS011;68247;43.514;1.502;2023-07-31T08:22:51;9.43;;;3.57;;
78871;SDS011;68247;43.514;1.502;2023-07-31T08:25:18;9.10;;;3.25;;
78871;SDS011;68247;43.514;1.502;2023-07-31T08:27:43;9.48;;;3.30;;
78871;SDS011;68247;43.514;1.502;2023-07-31T08:30:09;9.40;;;2.97;;
78871;SDS011;68247;43.514;1.502;2023-07-31T08:32:36;8.68;;;3.35;;
78871;SDS011;68247;43.514;1.502;2023-07-31T08:35:01;10.33;;;3.57;;
78871;SDS011;68247;43.514;1.502;2023-07-31T08:37:27;9.48;;;3.10;;
78871;SDS011;68247;43.514;1.502;2023-07-31T08:39:53;8.37;;;3.37;;
78871;SDS011;68247;43.514;1.502;2023-07-31T08:42:19;6.38;;;2.92;;
78871;SDS011;68247;43.514;1.502;2023-07-31T08:44:45;7.83;;;3.07;;
78871;SDS011;68247;43.514;1.502;2023-07-31T08:47:12;7.68;;;3.05;;
78871;SDS011;68247;43.514;1.502;2023-07-31T08:49:37;11.07;;;3.77;;
78871;SDS011;68247;43.514;1.502;2023-07-31T08:52:03;9.88;;;3.50;;
78871;SDS011;68247;43.514;1.502;2023-07-31T08:54:29;9.50;;;3.80;;
78871;SDS011;68247;43.514;1.502;2023-07-31T08:56:56;9.80;;;3.00;;
78871;SDS011;68247;43.514;1.502;2023-07-31T08:59:23;8.47;;;3.33;;
78871;SDS011;68247;43.514;1.502;2023-07-31T09:01:50;6.70;;;2.65;;
78871;SDS011;68247;43.514;1.502;2023-07-31T09:04:18;9.07;;;3.13;;
78871;SDS011;68247;43.514;1.502;2023-07-31T09:06:45;8.68;;;3.42;;
78871;SDS011;68247;43.514;1.502;2023-07-31T09:09:12;9.73;;;3.03;;
78871;SDS011;68247;43.514;1.502;2023-07-31T09:11:37;7.83;;;2.87;;
78871;SDS011;68247;43.514;1.502;2023-07-31T09:14:03;6.35;;;2.92;;
78871;SDS011;68247;43.514;1.502;2023-07-31T09:16:33;6.50;;;3.10;;
78871;SDS011;68247;43.514;1.502;2023-07-31T09:18:59;6.68;;;2.88;;
78871;SDS011;68247;43.514;1.502;2023-07-31T09:21:27;7.78;;;2.85;;
78871;SDS011;68247;43.514;1.502;2023-07-31T09:23:53;7.00;;;2.47;;
78871;SDS011;68247;43.514;1.502;2023-07-31T09:29:00;6.88;;;2.63;;
78871;SDS011;68247;43.514;1.502;2023-07-31T09:33:59;6.68;;;2.50;;
78871;SDS011;68247;43.514;1.502;2023-07-31T09:36:28;6.78;;;2.50;;
78871;SDS011;68247;43.514;1.502;2023-07-31T09:38:54;8.30;;;2.77;;
78871;SDS011;68247;43.514;1.502;2023-07-31T09:41:20;7.85;;;3.00;;
78871;SDS011;68247;43.514;1.502;2023-07-31T09:43:52;6.27;;;2.60;;
78871;SDS011;68247;43.514;1.502;2023-07-31T09:46:20;7.25;;;2.35;;
78871;SDS011;68247;43.514;1.502;2023-07-31T09:48:45;6.00;;;2.40;;
78871;SDS011;68247;43.514;1.502;2023-07-31T09:51:11;6.10;;;2.70;;
78871;SDS011;68247;43.514;1.502;2023-07-31T09:53:37;5.57;;;2.20;;
78871;SDS011;68247;43.514;1.502;2023-07-31T09:56:02;5.53;;;2.30;;
78871;SDS011;68247;43.514;1.502;2023-07-31T09:58:29;5.47;;;2.40;;
78871;SDS011;68247;43.514;1.502;2023-07-31T10:00:57;6.20;;;2.30;;
78871;SDS011;68247;43.514;1.502;2023-07-31T10:03:24;6.97;;;2.10;;
78871;SDS011;68247;43.514;1.502;2023-07-31T10:05:50;5.43;;;2.40;;
78871;SDS011;68247;43.514;1.502;2023-07-31T10:08:16;6.97;;;2.38;;
78871;SDS011;68247;43.514;1.502;2023-07-31T10:10:44;5.07;;;2.30;;
78871;SDS011;68247;43.514;1.502;2023-07-31T10:13:10;6.67;;;2.07;;
78871;SDS011;68247;43.514;1.502;2023-07-31T10:15:36;7.45;;;2.58;;
78871;SDS011;68247;43.514;1.502;2023-07-31T10:18:02;5.55;;;2.40;;
78871;SDS011;68247;43.514;1.502;2023-07-31T10:20:28;4.23;;;2.10;;
78871;SDS011;68247;43.514;1.502;2023-07-31T10:22:57;7.55;;;2.40;;
78871;SDS011;68247;43.514;1.502;2023-07-31T10:25:24;7.60;;;2.50;;
78871;SDS011;68247;43.514;1.502;2023-07-31T10:27:51;6.57;;;2.10;;
78871;SDS011;68247;43.514;1.502;2023-07-31T10:30:18;4.95;;;2.10;;
78871;SDS011;68247;43.514;1.502;2023-07-31T10:32:46;5.13;;;2.53;;
78871;SDS011;68247;43.514;1.502;2023-07-31T10:35:14;5.05;;;2.40;;
78871;SDS011;68247;43.514;1.502;2023-07-31T10:37:40;5.75;;;2.40;;
78871;SDS011;68247;43.514;1.502;2023-07-31T10:40:10;5.37;;;2.53;;
78871;SDS011;68247;43.514;1.502;2023-07-31T10:42:52;8.10;;;2.20;;
78871;SDS011;68247;43.514;1.502;2023-07-31T10:45:31;6.70;;;2.50;;
78871;SDS011;68247;43.514;1.502;2023-07-31T10:48:05;5.57;;;2.20;;
78871;SDS011;68247;43.514;1.502;2023-07-31T10:50:32;7.70;;;2.30;;
78871;SDS011;68247;43.514;1.502;2023-07-31T10:53:02;4.77;;;2.40;;
78871;SDS011;68247;43.514;1.502;2023-07-31T10:55:32;4.95;;;2.50;;
78871;SDS011;68247;43.514;1.502;2023-07-31T10:58:07;3.97;;;2.45;;
78871;SDS011;68247;43.514;1.502;2023-07-31T11:00:36;6.43;;;2.78;;
78871;SDS011;68247;43.514;1.502;2023-07-31T11:03:06;6.55;;;2.30;;
78871;SDS011;68247;43.514;1.502;2023-07-31T11:05:41;5.97;;;2.53;;
78871;SDS011;68247;43.514;1.502;2023-07-31T11:10:40;5.43;;;2.40;;
78871;SDS011;68247;43.514;1.502;2023-07-31T11:13:05;4.53;;;2.40;;
78871;SDS011;68247;43.514;1.502;2023-07-31T11:15:31;5.75;;;2.63;;
78871;SDS011;68247;43.514;1.502;2023-07-31T11:17:56;6.30;;;2.67;;
78871;SDS011;68247;43.514;1.502;2023-07-31T11:20:26;6.95;;;2.60;;
78871;SDS011;68247;43.514;1.502;2023-07-31T11:22:52;4.77;;;2.70;;
78871;SDS011;68247;43.514;1.502;2023-07-31T11:25:18;4.88;;;2.83;;
78871;SDS011;68247;43.514;1.502;2023-07-31T11:27:43;5.93;;;2.70;;
78871;SDS011;68247;43.514;1.502;2023-07-31T11:30:10;5.57;;;3.03;;
78871;SDS011;68247;43.514;1.502;2023-07-31T11:32:36;5.17;;;2.90;;
78871;SDS011;68247;43.514;1.502;2023-07-31T11:35:02;7.72;;;3.40;;
78871;SDS011;68247;43.514;1.502;2023-07-31T11:37:42;5.90;;;2.80;;
78871;SDS011;68247;43.514;1.502;2023-07-31T11:40:08;5.38;;;2.80;;
78871;SDS011;68247;43.514;1.502;2023-07-31T11:42:34;6.85;;;2.65;;
78871;SDS011;68247;43.514;1.502;2023-07-31T11:45:06;5.50;;;2.83;;
78871;SDS011;68247;43.514;1.502;2023-07-31T11:47:32;6.68;;;2.90;;
78871;SDS011;68247;43.514;1.502;2023-07-31T11:50:00;5.82;;;2.97;;
78871;SDS011;68247;43.514;1.502;2023-07-31T11:52:26;5.18;;;2.85;;
78871;SDS011;68247;43.514;1.502;2023-07-31T11:54:54;5.15;;;2.75;;
78871;SDS011;68247;43.514;1.502;2023-07-31T11:57:19;5.23;;;2.93;;
78871;SDS011;68247;43.514;1.502;2023-07-31T11:59:45;5.72;;;3.28;;
78871;SDS011;68247;43.514;1.502;2023-07-31T12:02:11;5.33;;;3.40;;
78871;SDS011;68247;43.514;1.502;2023-07-31T12:04:36;5.60;;;2.73;;
78871;SDS011;68247;43.514;1.502;2023-07-31T12:07:03;6.13;;;2.80;;
78871;SDS011;68247;43.514;1.502;2023-07-31T12:09:29;6.57;;;3.00;;
78871;SDS011;68247;43.514;1.502;2023-07-31T12:11:54;6.50;;;2.87;;
78871;SDS011;68247;43.514;1.502;2023-07-31T12:14:20;7.03;;;2.90;;
78871;SDS011;68247;43.514;1.502;2023-07-31T12:16:52;7.40;;;3.17;;
78871;SDS011;68247;43.514;1.502;2023-07-31T12:19:22;6.28;;;2.90;;
78871;SDS011;68247;43.514;1.502;2023-07-31T12:21:48;6.10;;;2.92;;
78871;SDS011;68247;43.514;1.502;2023-07-31T12:24:14;4.97;;;2.90;;
78871;SDS011;68247;43.514;1.502;2023-07-31T12:26:39;5.30;;;2.90;;
78871;SDS011;68247;43.514;1.502;2023-07-31T12:29:07;6.40;;;3.37;;
78871;SDS011;68247;43.514;1.502;2023-07-31T12:31:33;6.93;;;3.30;;
78871;SDS011;68247;43.514;1.502;2023-07-31T12:33:59;6.68;;;3.42;;
78871;SDS011;68247;43.514;1.502;2023-07-31T12:36:24;6.23;;;3.40;;
78871;SDS011;68247;43.514;1.502;2023-07-31T12:38:50;5.80;;;3.20;;
78871;SDS011;68247;43.514;1.502;2023-07-31T12:41:16;5.20;;;3.42;;
78871;SDS011;68247;43.514;1.502;2023-07-31T12:43:43;7.00;;;3.50;;
78871;SDS011;68247;43.514;1.502;2023-07-31T12:46:09;7.00;;;3.63;;
78871;SDS011;68247;43.514;1.502;2023-07-31T12:48:35;6.28;;;3.42;;
78871;SDS011;68247;43.514;1.502;2023-07-31T12:51:01;4.82;;;3.15;;
78871;SDS011;68247;43.514;1.502;2023-07-31T12:53:27;6.23;;;3.50;;
78871;SDS011;68247;43.514;1.502;2023-07-31T12:55:54;5.03;;;3.63;;
78871;SDS011;68247;43.514;1.502;2023-07-31T12:58:20;7.20;;;3.40;;
78871;SDS011;68247;43.514;1.502;2023-07-31T13:00:45;6.33;;;3.70;;
78871;SDS011;68247;43.514;1.502;2023-07-31T13:03:11;7.13;;;3.97;;
78871;SDS011;68247;43.514;1.502;2023-07-31T13:05:36;5.32;;;3.33;;
78871;SDS011;68247;43.514;1.502;2023-07-31T13:08:02;5.47;;;3.17;;
78871;SDS011;68247;43.514;1.502;2023-07-31T13:10:27;5.90;;;3.73;;
78871;SDS011;68247;43.514;1.502;2023-07-31T13:12:53;9.80;;;3.90;;
78871;SDS011;68247;43.514;1.502;2023-07-31T13:15:19;6.45;;;3.53;;
78871;SDS011;68247;43.514;1.502;2023-07-31T13:17:45;6.50;;;3.57;;
78871;SDS011;68247;43.514;1.502;2023-07-31T13:20:11;5.53;;;3.55;;
78871;SDS011;68247;43.514;1.502;2023-07-31T13:22:36;7.37;;;4.00;;
78871;SDS011;68247;43.514;1.502;2023-07-31T13:25:02;7.97;;;3.60;;
78871;SDS011;68247;43.514;1.502;2023-07-31T13:27:28;6.57;;;3.30;;
78871;SDS011;68247;43.514;1.502;2023-07-31T13:29:53;5.57;;;3.80;;
78871;SDS011;68247;43.514;1.502;2023-07-31T13:32:19;5.50;;;3.47;;
78871;SDS011;68247;43.514;1.502;2023-07-31T13:34:45;6.53;;;3.70;;
78871;SDS011;68247;43.514;1.502;2023-07-31T13:37:11;6.70;;;3.58;;
78871;SDS011;68247;43.514;1.502;2023-07-31T13:39:38;4.28;;;3.40;;
78871;SDS011;68247;43.514;1.502;2023-07-31T13:42:04;6.10;;;3.73;;
78871;SDS011;68247;43.514;1.502;2023-07-31T13:44:32;6.72;;;3.47;;
78871;SDS011;68247;43.514;1.502;2023-07-31T13:46:59;6.45;;;3.33;;
78871;SDS011;68247;43.514;1.502;2023-07-31T13:49:25;8.65;;;3.92;;
78871;SDS011;68247;43.514;1.502;2023-07-31T13:51:50;6.43;;;4.00;;
78871;SDS011;68247;43.514;1.502;2023-07-31T13:54:15;4.90;;;3.70;;
78871;SDS011;68247;43.514;1.502;2023-07-31T13:56:41;7.07;;;3.50;;
78871;SDS011;68247;43.514;1.502;2023-07-31T13:59:07;7.78;;;4.07;;
78871;SDS011;68247;43.514;1.502;2023-07-31T14:01:33;7.57;;;4.40;;
78871;SDS011;68247;43.514;1.502;2023-07-31T14:03:58;6.65;;;3.88;;
78871;SDS011;68247;43.514;1.502;2023-07-31T14:06:24;6.07;;;4.10;;
78871;SDS011;68247;43.514;1.502;2023-07-31T14:08:49;5.40;;;3.70;;
78871;SDS011;68247;43.514;1.502;2023-07-31T14:11:15;6.37;;;3.80;;
78871;SDS011;68247;43.514;1.502;2023-07-31T14:13:40;6.72;;;3.45;;
78871;SDS011;68247;43.514;1.502;2023-07-31T14:16:05;6.10;;;3.53;;
78871;SDS011;68247;43.514;1.502;2023-07-31T14:18:31;6.23;;;4.20;;
78871;SDS011;68247;43.514;1.502;2023-07-31T14:20:57;5.60;;;3.73;;
78871;SDS011;68247;43.514;1.502;2023-07-31T14:23:22;6.07;;;4.13;;
78871;SDS011;68247;43.514;1.502;2023-07-31T14:25:47;6.07;;;4.20;;
78871;SDS011;68247;43.514;1.502;2023-07-31T14:28:13;5.20;;;3.80;;
78871;SDS011;68247;43.514;1.502;2023-07-31T14:30:39;7.23;;;4.00;;
78871;SDS011;68247;43.514;1.502;2023-07-31T14:33:04;5.97;;;3.73;;
78871;SDS011;68247;43.514;1.502;2023-07-31T14:35:30;6.50;;;3.90;;
78871;SDS011;68247;43.514;1.502;2023-07-31T14:37:55;6.97;;;4.05;;
78871;SDS011;68247;43.514;1.502;2023-07-31T14:40:21;6.63;;;3.97;;
78871;SDS011;68247;43.514;1.502;2023-07-31T14:42:46;5.53;;;3.67;;
78871;SDS011;68247;43.514;1.502;2023-07-31T14:45:11;5.37;;;4.00;;
78871;SDS011;68247;43.514;1.502;2023-07-31T14:47:37;4.95;;;3.80;;
78871;SDS011;68247;43.514;1.502;2023-07-31T14:50:03;5.43;;;4.00;;
78871;SDS011;68247;43.514;1.502;2023-07-31T14:52:28;5.78;;;4.63;;